Aviation Digital Data Service (ADDS)

Output produced by METARs form (2007 UTC 23 March 2017)
found at http://www.aviationweather.gov/adds/metars/
 
KWWD 231956Z AUTO 28009KT 10SM CLR 04/M11 A3058 RMK AO2 SLP359 T00441106 $